sensor_id;sensor_type;location;lat;lon;timestamp;P1;durP1;ratioP1;P2;durP2;ratioP2
18334;SDS011;9293;49.524;10.964;2022-09-20T00:01:34;5.68;;;1.50;;
18334;SDS011;9293;49.524;10.964;2022-09-20T00:04:03;7.05;;;1.17;;
18334;SDS011;9293;49.524;10.964;2022-09-20T00:06:32;6.80;;;1.30;;
18334;SDS011;9293;49.524;10.964;2022-09-20T00:09:00;3.85;;;1.27;;
18334;SDS011;9293;49.524;10.964;2022-09-20T00:11:30;3.67;;;1.10;;
18334;SDS011;9293;49.524;10.964;2022-09-20T00:14:00;3.92;;;1.20;;
18334;SDS011;9293;49.524;10.964;2022-09-20T00:16:30;5.97;;;1.20;;
18334;SDS011;9293;49.524;10.964;2022-09-20T00:19:01;8.60;;;1.15;;
18334;SDS011;9293;49.524;10.964;2022-09-20T00:21:31;4.88;;;1.40;;
18334;SDS011;9293;49.524;10.964;2022-09-20T00:24:00;5.05;;;1.38;;
18334;SDS011;9293;49.524;10.964;2022-09-20T00:26:28;3.35;;;1.13;;
18334;SDS011;9293;49.524;10.964;2022-09-20T00:28:56;4.95;;;0.90;;
18334;SDS011;9293;49.524;10.964;2022-09-20T00:31:25;3.63;;;1.15;;
18334;SDS011;9293;49.524;10.964;2022-09-20T00:33:54;3.53;;;1.10;;
18334;SDS011;9293;49.524;10.964;2022-09-20T00:36:41;5.25;;;1.23;;
18334;SDS011;9293;49.524;10.964;2022-09-20T00:39:11;4.45;;;1.30;;
18334;SDS011;9293;49.524;10.964;2022-09-20T00:41:40;4.97;;;1.50;;
18334;SDS011;9293;49.524;10.964;2022-09-20T00:47:27;6.18;;;1.35;;
18334;SDS011;9293;49.524;10.964;2022-09-20T00:50:02;6.93;;;1.83;;
18334;SDS011;9293;49.524;10.964;2022-09-20T00:52:39;7.10;;;1.30;;
18334;SDS011;9293;49.524;10.964;2022-09-20T00:55:11;6.78;;;2.00;;
18334;SDS011;9293;49.524;10.964;2022-09-20T00:57:41;7.47;;;1.38;;
18334;SDS011;9293;49.524;10.964;2022-09-20T01:00:12;5.05;;;1.65;;
18334;SDS011;9293;49.524;10.964;2022-09-20T01:02:41;7.72;;;1.88;;
18334;SDS011;9293;49.524;10.964;2022-09-20T01:05:13;3.80;;;1.20;;
18334;SDS011;9293;49.524;10.964;2022-09-20T01:07:44;5.18;;;1.35;;
18334;SDS011;9293;49.524;10.964;2022-09-20T01:10:14;8.37;;;1.53;;
18334;SDS011;9293;49.524;10.964;2022-09-20T01:12:42;4.18;;;1.30;;
18334;SDS011;9293;49.524;10.964;2022-09-20T01:15:13;3.33;;;1.10;;
18334;SDS011;9293;49.524;10.964;2022-09-20T01:17:43;5.95;;;1.40;;
18334;SDS011;9293;49.524;10.964;2022-09-20T01:23:06;5.93;;;1.42;;
18334;SDS011;9293;49.524;10.964;2022-09-20T01:28:27;4.25;;;1.48;;
18334;SDS011;9293;49.524;10.964;2022-09-20T01:30:59;6.03;;;1.40;;
18334;SDS011;9293;49.524;10.964;2022-09-20T01:33:43;5.40;;;1.58;;
18334;SDS011;9293;49.524;10.964;2022-09-20T01:36:18;3.42;;;1.38;;
18334;SDS011;9293;49.524;10.964;2022-09-20T01:41:57;7.95;;;1.30;;
18334;SDS011;9293;49.524;10.964;2022-09-20T01:50:34;4.60;;;1.60;;
18334;SDS011;9293;49.524;10.964;2022-09-20T01:53:40;6.10;;;1.50;;
18334;SDS011;9293;49.524;10.964;2022-09-20T02:07:06;12.68;;;2.25;;
18334;SDS011;9293;49.524;10.964;2022-09-20T02:12:54;4.15;;;1.67;;
18334;SDS011;9293;49.524;10.964;2022-09-20T02:21:45;5.40;;;1.80;;
18334;SDS011;9293;49.524;10.964;2022-09-20T02:24:22;7.28;;;1.88;;
18334;SDS011;9293;49.524;10.964;2022-09-20T02:30:41;8.95;;;1.63;;
18334;SDS011;9293;49.524;10.964;2022-09-20T02:36:34;8.73;;;1.80;;
18334;SDS011;9293;49.524;10.964;2022-09-20T02:39:21;5.28;;;1.63;;
18334;SDS011;9293;49.524;10.964;2022-09-20T02:42:20;6.30;;;2.03;;
18334;SDS011;9293;49.524;10.964;2022-09-20T02:45:02;4.97;;;2.03;;
18334;SDS011;9293;49.524;10.964;2022-09-20T02:47:41;4.28;;;1.73;;
18334;SDS011;9293;49.524;10.964;2022-09-20T03:01:37;5.43;;;2.15;;
18334;SDS011;9293;49.524;10.964;2022-09-20T03:04:20;6.28;;;1.88;;
18334;SDS011;9293;49.524;10.964;2022-09-20T03:14:17;4.40;;;1.90;;
18334;SDS011;9293;49.524;10.964;2022-09-20T03:16:52;6.47;;;2.45;;
18334;SDS011;9293;49.524;10.964;2022-09-20T03:22:25;10.23;;;2.10;;
18334;SDS011;9293;49.524;10.964;2022-09-20T03:24:59;4.45;;;2.38;;
18334;SDS011;9293;49.524;10.964;2022-09-20T03:33:33;8.85;;;1.92;;
18334;SDS011;9293;49.524;10.964;2022-09-20T03:38:58;6.03;;;2.05;;
18334;SDS011;9293;49.524;10.964;2022-09-20T03:45:02;7.63;;;2.35;;
18334;SDS011;9293;49.524;10.964;2022-09-20T03:47:33;11.32;;;1.75;;
18334;SDS011;9293;49.524;10.964;2022-09-20T03:53:25;8.77;;;2.10;;
18334;SDS011;9293;49.524;10.964;2022-09-20T04:02:07;8.45;;;2.03;;
18334;SDS011;9293;49.524;10.964;2022-09-20T04:04:48;7.68;;;2.10;;
18334;SDS011;9293;49.524;10.964;2022-09-20T04:07:52;7.50;;;1.90;;
18334;SDS011;9293;49.524;10.964;2022-09-20T04:16:49;7.90;;;1.98;;
18334;SDS011;9293;49.524;10.964;2022-09-20T04:19:25;5.32;;;1.85;;
18334;SDS011;9293;49.524;10.964;2022-09-20T04:22:07;7.63;;;2.22;;
18334;SDS011;9293;49.524;10.964;2022-09-20T04:27:24;7.22;;;2.35;;
18334;SDS011;9293;49.524;10.964;2022-09-20T04:32:53;6.40;;;1.98;;
18334;SDS011;9293;49.524;10.964;2022-09-20T04:35:38;7.20;;;2.03;;
18334;SDS011;9293;49.524;10.964;2022-09-20T04:38:49;4.53;;;2.33;;
18334;SDS011;9293;49.524;10.964;2022-09-20T04:50:32;7.15;;;2.00;;
18334;SDS011;9293;49.524;10.964;2022-09-20T04:59:20;8.73;;;2.83;;
18334;SDS011;9293;49.524;10.964;2022-09-20T05:05:11;8.63;;;2.80;;
18334;SDS011;9293;49.524;10.964;2022-09-20T05:19:15;6.82;;;3.65;;
18334;SDS011;9293;49.524;10.964;2022-09-20T05:25:04;7.43;;;3.25;;
18334;SDS011;9293;49.524;10.964;2022-09-20T05:27:54;10.20;;;3.75;;
18334;SDS011;9293;49.524;10.964;2022-09-20T05:30:32;13.63;;;3.90;;
18334;SDS011;9293;49.524;10.964;2022-09-20T05:33:20;7.03;;;3.78;;
18334;SDS011;9293;49.524;10.964;2022-09-20T05:36:04;9.30;;;3.67;;
18334;SDS011;9293;49.524;10.964;2022-09-20T05:39:00;10.18;;;4.43;;
18334;SDS011;9293;49.524;10.964;2022-09-20T05:41:46;13.45;;;4.70;;
18334;SDS011;9293;49.524;10.964;2022-09-20T05:47:32;15.60;;;4.65;;
18334;SDS011;9293;49.524;10.964;2022-09-20T05:59:02;9.45;;;4.90;;
18334;SDS011;9293;49.524;10.964;2022-09-20T06:04:22;12.00;;;4.93;;
18334;SDS011;9293;49.524;10.964;2022-09-20T06:12:37;10.68;;;4.57;;
18334;SDS011;9293;49.524;10.964;2022-09-20T06:15:35;14.07;;;5.07;;
18334;SDS011;9293;49.524;10.964;2022-09-20T06:21:04;8.32;;;4.45;;
18334;SDS011;9293;49.524;10.964;2022-09-20T06:23:41;8.38;;;4.53;;
18334;SDS011;9293;49.524;10.964;2022-09-20T06:26:21;10.93;;;4.45;;
18334;SDS011;9293;49.524;10.964;2022-09-20T06:28:53;13.13;;;4.38;;
18334;SDS011;9293;49.524;10.964;2022-09-20T06:31:26;9.85;;;4.15;;
18334;SDS011;9293;49.524;10.964;2022-09-20T06:33:57;8.60;;;3.72;;
18334;SDS011;9293;49.524;10.964;2022-09-20T06:36:31;10.25;;;4.35;;
18334;SDS011;9293;49.524;10.964;2022-09-20T06:39:40;8.15;;;3.58;;
18334;SDS011;9293;49.524;10.964;2022-09-20T06:42:35;10.60;;;4.07;;
18334;SDS011;9293;49.524;10.964;2022-09-20T06:45:04;9.07;;;3.72;;
18334;SDS011;9293;49.524;10.964;2022-09-20T06:47:33;9.90;;;3.95;;
18334;SDS011;9293;49.524;10.964;2022-09-20T06:50:04;8.27;;;4.28;;
18334;SDS011;9293;49.524;10.964;2022-09-20T06:52:32;13.75;;;4.43;;
18334;SDS011;9293;49.524;10.964;2022-09-20T06:55:00;12.82;;;4.32;;
18334;SDS011;9293;49.524;10.964;2022-09-20T06:57:34;12.48;;;4.68;;
18334;SDS011;9293;49.524;10.964;2022-09-20T07:00:06;9.55;;;4.28;;
18334;SDS011;9293;49.524;10.964;2022-09-20T07:02:38;11.20;;;4.32;;
18334;SDS011;9293;49.524;10.964;2022-09-20T07:05:08;14.30;;;4.90;;
18334;SDS011;9293;49.524;10.964;2022-09-20T07:07:41;10.48;;;5.78;;
18334;SDS011;9293;49.524;10.964;2022-09-20T07:10:10;11.50;;;5.32;;
18334;SDS011;9293;49.524;10.964;2022-09-20T07:12:38;16.10;;;6.60;;
18334;SDS011;9293;49.524;10.964;2022-09-20T07:15:06;21.55;;;7.22;;
18334;SDS011;9293;49.524;10.964;2022-09-20T07:17:35;14.25;;;7.35;;
18334;SDS011;9293;49.524;10.964;2022-09-20T07:20:03;14.65;;;7.70;;
18334;SDS011;9293;49.524;10.964;2022-09-20T07:22:31;16.95;;;7.10;;
18334;SDS011;9293;49.524;10.964;2022-09-20T07:24:59;15.50;;;6.70;;
18334;SDS011;9293;49.524;10.964;2022-09-20T07:27:28;13.35;;;5.70;;
18334;SDS011;9293;49.524;10.964;2022-09-20T07:29:56;9.05;;;5.10;;
18334;SDS011;9293;49.524;10.964;2022-09-20T07:32:24;10.35;;;4.75;;
18334;SDS011;9293;49.524;10.964;2022-09-20T07:34:53;7.93;;;3.92;;
18334;SDS011;9293;49.524;10.964;2022-09-20T07:37:21;13.23;;;3.97;;
18334;SDS011;9293;49.524;10.964;2022-09-20T07:39:49;6.38;;;3.28;;
18334;SDS011;9293;49.524;10.964;2022-09-20T07:42:17;8.73;;;3.80;;
18334;SDS011;9293;49.524;10.964;2022-09-20T07:44:45;9.63;;;3.53;;
18334;SDS011;9293;49.524;10.964;2022-09-20T07:47:13;6.80;;;3.00;;
18334;SDS011;9293;49.524;10.964;2022-09-20T07:49:41;8.65;;;3.00;;
18334;SDS011;9293;49.524;10.964;2022-09-20T07:52:09;9.82;;;2.60;;
18334;SDS011;9293;49.524;10.964;2022-09-20T07:54:37;12.77;;;3.22;;
18334;SDS011;9293;49.524;10.964;2022-09-20T07:57:06;11.60;;;2.60;;
18334;SDS011;9293;49.524;10.964;2022-09-20T07:59:34;6.75;;;2.35;;
18334;SDS011;9293;49.524;10.964;2022-09-20T08:02:02;9.88;;;2.55;;
18334;SDS011;9293;49.524;10.964;2022-09-20T08:04:30;12.20;;;2.55;;
18334;SDS011;9293;49.524;10.964;2022-09-20T08:06:58;7.38;;;2.28;;
18334;SDS011;9293;49.524;10.964;2022-09-20T08:09:27;12.30;;;2.85;;
18334;SDS011;9293;49.524;10.964;2022-09-20T08:11:55;7.32;;;1.90;;
18334;SDS011;9293;49.524;10.964;2022-09-20T08:14:23;9.77;;;2.60;;
18334;SDS011;9293;49.524;10.964;2022-09-20T08:16:51;8.93;;;2.22;;
18334;SDS011;9293;49.524;10.964;2022-09-20T08:19:20;10.98;;;2.10;;
18334;SDS011;9293;49.524;10.964;2022-09-20T08:21:49;9.40;;;1.92;;
18334;SDS011;9293;49.524;10.964;2022-09-20T08:24:19;10.48;;;2.35;;
18334;SDS011;9293;49.524;10.964;2022-09-20T08:26:49;15.07;;;2.88;;
18334;SDS011;9293;49.524;10.964;2022-09-20T08:29:17;10.52;;;2.72;;
18334;SDS011;9293;49.524;10.964;2022-09-20T08:31:45;6.50;;;2.10;;
18334;SDS011;9293;49.524;10.964;2022-09-20T08:34:14;8.98;;;2.13;;
18334;SDS011;9293;49.524;10.964;2022-09-20T08:36:53;15.23;;;2.83;;
18334;SDS011;9293;49.524;10.964;2022-09-20T08:39:23;9.48;;;2.05;;
18334;SDS011;9293;49.524;10.964;2022-09-20T08:45:17;12.85;;;2.53;;
18334;SDS011;9293;49.524;10.964;2022-09-20T08:48:00;10.15;;;1.73;;
18334;SDS011;9293;49.524;10.964;2022-09-20T08:50:31;11.68;;;1.83;;
18334;SDS011;9293;49.524;10.964;2022-09-20T08:53:03;10.57;;;2.13;;
18334;SDS011;9293;49.524;10.964;2022-09-20T08:55:31;7.18;;;2.13;;
18334;SDS011;9293;49.524;10.964;2022-09-20T08:58:02;5.57;;;1.40;;
18334;SDS011;9293;49.524;10.964;2022-09-20T09:00:34;13.65;;;1.85;;
18334;SDS011;9293;49.524;10.964;2022-09-20T09:03:05;11.43;;;1.83;;
18334;SDS011;9293;49.524;10.964;2022-09-20T09:05:42;9.45;;;2.45;;
18334;SDS011;9293;49.524;10.964;2022-09-20T09:08:14;10.82;;;1.50;;
18334;SDS011;9293;49.524;10.964;2022-09-20T09:10:48;5.20;;;1.30;;
18334;SDS011;9293;49.524;10.964;2022-09-20T09:13:22;7.80;;;1.52;;
18334;SDS011;9293;49.524;10.964;2022-09-20T09:16:12;8.27;;;1.60;;
18334;SDS011;9293;49.524;10.964;2022-09-20T09:18:49;8.43;;;1.48;;
18334;SDS011;9293;49.524;10.964;2022-09-20T09:21:19;5.55;;;1.35;;
18334;SDS011;9293;49.524;10.964;2022-09-20T09:24:03;7.10;;;1.60;;
18334;SDS011;9293;49.524;10.964;2022-09-20T09:26:40;9.88;;;1.50;;
18334;SDS011;9293;49.524;10.964;2022-09-20T09:29:14;6.00;;;1.17;;
18334;SDS011;9293;49.524;10.964;2022-09-20T09:31:45;3.60;;;0.50;;
18334;SDS011;9293;49.524;10.964;2022-09-20T09:34:30;4.70;;;0.85;;
18334;SDS011;9293;49.524;10.964;2022-09-20T09:37:01;3.22;;;0.65;;
18334;SDS011;9293;49.524;10.964;2022-09-20T09:39:30;3.78;;;0.85;;
18334;SDS011;9293;49.524;10.964;2022-09-20T09:42:20;2.08;;;1.00;;
18334;SDS011;9293;49.524;10.964;2022-09-20T09:44:52;4.55;;;1.30;;
18334;SDS011;9293;49.524;10.964;2022-09-20T09:47:36;4.50;;;1.20;;
18334;SDS011;9293;49.524;10.964;2022-09-20T09:50:04;5.40;;;1.23;;
18334;SDS011;9293;49.524;10.964;2022-09-20T09:52:35;5.65;;;1.08;;
18334;SDS011;9293;49.524;10.964;2022-09-20T09:55:03;4.15;;;0.90;;
18334;SDS011;9293;49.524;10.964;2022-09-20T10:00:42;6.68;;;1.17;;
18334;SDS011;9293;49.524;10.964;2022-09-20T10:06:06;5.07;;;1.75;;
18334;SDS011;9293;49.524;10.964;2022-09-20T10:11:48;2.50;;;0.77;;
18334;SDS011;9293;49.524;10.964;2022-09-20T10:25:55;6.55;;;1.27;;
18334;SDS011;9293;49.524;10.964;2022-09-20T10:29:04;7.28;;;1.27;;
18334;SDS011;9293;49.524;10.964;2022-09-20T10:37:39;9.75;;;1.80;;
18334;SDS011;9293;49.524;10.964;2022-09-20T10:42:58;8.27;;;1.42;;
18334;SDS011;9293;49.524;10.964;2022-09-20T10:49:19;5.97;;;1.48;;
18334;SDS011;9293;49.524;10.964;2022-09-20T11:00:55;4.00;;;0.93;;
18334;SDS011;9293;49.524;10.964;2022-09-20T11:09:40;6.55;;;1.17;;
18334;SDS011;9293;49.524;10.964;2022-09-20T11:15:01;6.57;;;1.23;;
18334;SDS011;9293;49.524;10.964;2022-09-20T11:17:33;7.05;;;1.42;;
18334;SDS011;9293;49.524;10.964;2022-09-20T11:20:21;6.13;;;1.50;;
18334;SDS011;9293;49.524;10.964;2022-09-20T11:23:00;5.22;;;1.08;;
18334;SDS011;9293;49.524;10.964;2022-09-20T11:25:45;5.55;;;1.20;;
18334;SDS011;9293;49.524;10.964;2022-09-20T11:28:35;6.03;;;1.10;;
18334;SDS011;9293;49.524;10.964;2022-09-20T11:31:13;5.30;;;1.10;;
18334;SDS011;9293;49.524;10.964;2022-09-20T11:33:45;6.15;;;1.15;;
18334;SDS011;9293;49.524;10.964;2022-09-20T11:36:24;6.18;;;1.00;;
18334;SDS011;9293;49.524;10.964;2022-09-20T11:39:22;7.43;;;1.30;;
18334;SDS011;9293;49.524;10.964;2022-09-20T11:41:54;5.47;;;1.25;;
18334;SDS011;9293;49.524;10.964;2022-09-20T11:44:26;5.13;;;1.20;;
18334;SDS011;9293;49.524;10.964;2022-09-20T11:47:02;6.20;;;1.23;;
18334;SDS011;9293;49.524;10.964;2022-09-20T11:53:11;5.32;;;1.30;;
18334;SDS011;9293;49.524;10.964;2022-09-20T11:56:36;6.03;;;1.30;;
18334;SDS011;9293;49.524;10.964;2022-09-20T11:59:02;3.30;;;1.20;;
18334;SDS011;9293;49.524;10.964;2022-09-20T12:01:33;5.90;;;1.50;;
18334;SDS011;9293;49.524;10.964;2022-09-20T12:04:18;3.00;;;1.15;;
18334;SDS011;9293;49.524;10.964;2022-09-20T12:09:38;4.65;;;1.17;;
18334;SDS011;9293;49.524;10.964;2022-09-20T12:12:13;6.10;;;1.10;;
18334;SDS011;9293;49.524;10.964;2022-09-20T12:26:34;3.97;;;0.90;;
18334;SDS011;9293;49.524;10.964;2022-09-20T12:31:50;5.25;;;0.88;;
18334;SDS011;9293;49.524;10.964;2022-09-20T12:39:26;4.88;;;1.30;;
18334;SDS011;9293;49.524;10.964;2022-09-20T12:42:00;3.90;;;0.73;;
18334;SDS011;9293;49.524;10.964;2022-09-20T12:50:04;2.83;;;0.70;;
18334;SDS011;9293;49.524;10.964;2022-09-20T12:52:59;3.95;;;0.90;;
18334;SDS011;9293;49.524;10.964;2022-09-20T13:01:26;2.40;;;0.70;;
18334;SDS011;9293;49.524;10.964;2022-09-20T13:04:38;4.82;;;0.70;;
18334;SDS011;9293;49.524;10.964;2022-09-20T13:10:28;1.50;;;0.50;;
18334;SDS011;9293;49.524;10.964;2022-09-20T13:13:03;1.48;;;0.55;;
18334;SDS011;9293;49.524;10.964;2022-09-20T13:15:45;1.63;;;0.50;;
18334;SDS011;9293;49.524;10.964;2022-09-20T13:18:15;2.67;;;0.80;;
18334;SDS011;9293;49.524;10.964;2022-09-20T13:20:49;4.60;;;0.70;;
18334;SDS011;9293;49.524;10.964;2022-09-20T13:23:19;4.72;;;0.70;;
18334;SDS011;9293;49.524;10.964;2022-09-20T13:25:51;3.42;;;0.60;;
18334;SDS011;9293;49.524;10.964;2022-09-20T13:28:28;3.40;;;0.82;;
18334;SDS011;9293;49.524;10.964;2022-09-20T13:33:47;2.70;;;0.70;;
18334;SDS011;9293;49.524;10.964;2022-09-20T13:36:18;2.35;;;0.70;;
18334;SDS011;9293;49.524;10.964;2022-09-20T13:38:52;2.75;;;0.60;;
18334;SDS011;9293;49.524;10.964;2022-09-20T13:41:23;4.95;;;0.80;;
18334;SDS011;9293;49.524;10.964;2022-09-20T13:43:55;4.55;;;0.98;;
18334;SDS011;9293;49.524;10.964;2022-09-20T13:46:27;2.53;;;0.75;;
18334;SDS011;9293;49.524;10.964;2022-09-20T13:49:05;3.55;;;0.70;;
18334;SDS011;9293;49.524;10.964;2022-09-20T13:51:50;4.28;;;0.80;;
18334;SDS011;9293;49.524;10.964;2022-09-20T13:54:25;3.08;;;0.88;;
18334;SDS011;9293;49.524;10.964;2022-09-20T13:56:59;3.90;;;0.75;;
18334;SDS011;9293;49.524;10.964;2022-09-20T13:59:33;3.42;;;0.98;;
18334;SDS011;9293;49.524;10.964;2022-09-20T14:02:25;5.95;;;0.75;;
18334;SDS011;9293;49.524;10.964;2022-09-20T14:04:58;6.32;;;1.10;;
18334;SDS011;9293;49.524;10.964;2022-09-20T14:07:30;4.57;;;0.93;;
18334;SDS011;9293;49.524;10.964;2022-09-20T14:10:24;1.88;;;0.65;;
18334;SDS011;9293;49.524;10.964;2022-09-20T14:12:56;3.05;;;0.70;;
18334;SDS011;9293;49.524;10.964;2022-09-20T14:15:26;1.73;;;0.60;;
18334;SDS011;9293;49.524;10.964;2022-09-20T14:17:59;2.70;;;0.60;;
18334;SDS011;9293;49.524;10.964;2022-09-20T14:22:59;2.92;;;0.70;;
18334;SDS011;9293;49.524;10.964;2022-09-20T14:25:27;1.50;;;0.50;;
18334;SDS011;9293;49.524;10.964;2022-09-20T14:31:03;1.17;;;0.52;;
18334;SDS011;9293;49.524;10.964;2022-09-20T14:33:34;2.90;;;0.60;;
18334;SDS011;9293;49.524;10.964;2022-09-20T14:36:14;2.22;;;0.88;;
18334;SDS011;9293;49.524;10.964;2022-09-20T14:38:49;1.70;;;0.50;;
18334;SDS011;9293;49.524;10.964;2022-09-20T14:41:27;3.55;;;0.70;;
18334;SDS011;9293;49.524;10.964;2022-09-20T14:44:12;2.15;;;0.73;;
18334;SDS011;9293;49.524;10.964;2022-09-20T14:46:57;5.07;;;0.52;;
18334;SDS011;9293;49.524;10.964;2022-09-20T14:52:20;1.55;;;0.50;;
18334;SDS011;9293;49.524;10.964;2022-09-20T14:57:40;1.45;;;0.60;;
18334;SDS011;9293;49.524;10.964;2022-09-20T15:00:11;2.42;;;0.50;;
18334;SDS011;9293;49.524;10.964;2022-09-20T15:02:44;3.17;;;0.50;;
18334;SDS011;9293;49.524;10.964;2022-09-20T15:05:16;0.90;;;0.40;;
18334;SDS011;9293;49.524;10.964;2022-09-20T15:07:48;1.92;;;0.30;;
18334;SDS011;9293;49.524;10.964;2022-09-20T15:10:16;2.13;;;0.40;;
18334;SDS011;9293;49.524;10.964;2022-09-20T15:12:44;3.05;;;0.55;;
18334;SDS011;9293;49.524;10.964;2022-09-20T15:15:14;2.22;;;0.55;;
18334;SDS011;9293;49.524;10.964;2022-09-20T15:17:45;4.78;;;0.40;;
18334;SDS011;9293;49.524;10.964;2022-09-20T15:20:14;2.63;;;0.35;;
18334;SDS011;9293;49.524;10.964;2022-09-20T15:22:50;1.98;;;0.80;;
18334;SDS011;9293;49.524;10.964;2022-09-20T15:25:19;4.15;;;0.88;;
18334;SDS011;9293;49.524;10.964;2022-09-20T15:27:50;1.95;;;0.63;;
18334;SDS011;9293;49.524;10.964;2022-09-20T15:30:18;1.50;;;0.60;;
18334;SDS011;9293;49.524;10.964;2022-09-20T15:32:47;2.58;;;0.80;;
18334;SDS011;9293;49.524;10.964;2022-09-20T15:35:32;1.77;;;0.40;;
18334;SDS011;9293;49.524;10.964;2022-09-20T15:38:05;2.08;;;0.50;;
18334;SDS011;9293;49.524;10.964;2022-09-20T15:40:43;1.20;;;0.30;;
18334;SDS011;9293;49.524;10.964;2022-09-20T15:43:16;1.38;;;0.28;;
18334;SDS011;9293;49.524;10.964;2022-09-20T15:45:54;1.95;;;0.40;;
18334;SDS011;9293;49.524;10.964;2022-09-20T15:51:00;2.45;;;0.57;;
18334;SDS011;9293;49.524;10.964;2022-09-20T15:53:42;2.22;;;0.80;;
18334;SDS011;9293;49.524;10.964;2022-09-20T15:58:48;2.20;;;0.60;;
18334;SDS011;9293;49.524;10.964;2022-09-20T16:01:17;2.53;;;0.65;;
18334;SDS011;9293;49.524;10.964;2022-09-20T16:03:46;3.60;;;0.70;;
18334;SDS011;9293;49.524;10.964;2022-09-20T16:06:15;3.53;;;1.10;;
18334;SDS011;9293;49.524;10.964;2022-09-20T16:08:43;5.25;;;2.58;;
18334;SDS011;9293;49.524;10.964;2022-09-20T16:11:12;3.60;;;0.98;;
18334;SDS011;9293;49.524;10.964;2022-09-20T16:13:51;3.17;;;0.70;;
18334;SDS011;9293;49.524;10.964;2022-09-20T16:16:21;4.72;;;0.70;;
18334;SDS011;9293;49.524;10.964;2022-09-20T16:18:49;2.53;;;1.65;;
18334;SDS011;9293;49.524;10.964;2022-09-20T16:21:36;1.80;;;0.68;;
18334;SDS011;9293;49.524;10.964;2022-09-20T16:24:10;1.90;;;0.50;;
18334;SDS011;9293;49.524;10.964;2022-09-20T16:26:42;1.73;;;0.65;;
18334;SDS011;9293;49.524;10.964;2022-09-20T16:29:11;3.60;;;0.80;;
18334;SDS011;9293;49.524;10.964;2022-09-20T16:31:47;2.80;;;0.95;;
18334;SDS011;9293;49.524;10.964;2022-09-20T16:34:21;2.83;;;0.60;;
18334;SDS011;9293;49.524;10.964;2022-09-20T16:37:05;2.72;;;0.90;;
18334;SDS011;9293;49.524;10.964;2022-09-20T16:39:42;3.15;;;0.98;;
18334;SDS011;9293;49.524;10.964;2022-09-20T16:42:10;2.42;;;1.13;;
18334;SDS011;9293;49.524;10.964;2022-09-20T16:44:40;2.35;;;1.10;;
18334;SDS011;9293;49.524;10.964;2022-09-20T16:47:13;4.57;;;1.30;;
18334;SDS011;9293;49.524;10.964;2022-09-20T16:49:51;2.10;;;0.95;;
18334;SDS011;9293;49.524;10.964;2022-09-20T16:52:20;2.65;;;0.82;;
18334;SDS011;9293;49.524;10.964;2022-09-20T16:54:48;3.45;;;1.20;;
18334;SDS011;9293;49.524;10.964;2022-09-20T16:57:16;4.65;;;1.45;;
18334;SDS011;9293;49.524;10.964;2022-09-20T16:59:45;3.35;;;1.00;;
18334;SDS011;9293;49.524;10.964;2022-09-20T17:02:14;2.60;;;1.08;;
18334;SDS011;9293;49.524;10.964;2022-09-20T17:04:42;2.95;;;1.70;;
18334;SDS011;9293;49.524;10.964;2022-09-20T17:07:10;6.50;;;5.53;;
18334;SDS011;9293;49.524;10.964;2022-09-20T17:09:38;9.65;;;8.75;;
18334;SDS011;9293;49.524;10.964;2022-09-20T17:12:06;5.03;;;2.83;;
18334;SDS011;9293;49.524;10.964;2022-09-20T17:14:35;4.03;;;2.40;;
18334;SDS011;9293;49.524;10.964;2022-09-20T17:17:03;4.75;;;2.55;;
18334;SDS011;9293;49.524;10.964;2022-09-20T17:19:31;6.97;;;2.10;;
18334;SDS011;9293;49.524;10.964;2022-09-20T17:22:03;3.90;;;1.20;;
18334;SDS011;9293;49.524;10.964;2022-09-20T17:24:32;2.55;;;1.30;;
18334;SDS011;9293;49.524;10.964;2022-09-20T17:27:00;3.65;;;1.23;;
18334;SDS011;9293;49.524;10.964;2022-09-20T17:29:30;3.10;;;1.02;;
18334;SDS011;9293;49.524;10.964;2022-09-20T17:31:58;3.17;;;1.40;;
18334;SDS011;9293;49.524;10.964;2022-09-20T17:34:26;4.45;;;1.45;;
18334;SDS011;9293;49.524;10.964;2022-09-20T17:36:55;4.43;;;1.75;;
18334;SDS011;9293;49.524;10.964;2022-09-20T17:39:23;2.63;;;1.20;;
18334;SDS011;9293;49.524;10.964;2022-09-20T17:41:54;2.30;;;1.50;;
18334;SDS011;9293;49.524;10.964;2022-09-20T17:44:24;3.17;;;1.40;;
18334;SDS011;9293;49.524;10.964;2022-09-20T17:46:57;3.42;;;1.83;;
18334;SDS011;9293;49.524;10.964;2022-09-20T17:49:25;4.05;;;1.67;;
18334;SDS011;9293;49.524;10.964;2022-09-20T17:51:54;2.58;;;1.85;;
18334;SDS011;9293;49.524;10.964;2022-09-20T17:54:22;5.13;;;3.22;;
18334;SDS011;9293;49.524;10.964;2022-09-20T17:56:51;3.75;;;2.60;;
18334;SDS011;9293;49.524;10.964;2022-09-20T17:59:22;7.03;;;3.55;;
18334;SDS011;9293;49.524;10.964;2022-09-20T18:01:50;4.32;;;2.22;;
18334;SDS011;9293;49.524;10.964;2022-09-20T18:04:20;4.78;;;2.70;;
18334;SDS011;9293;49.524;10.964;2022-09-20T18:06:53;4.40;;;2.80;;
18334;SDS011;9293;49.524;10.964;2022-09-20T18:09:22;11.45;;;3.30;;
18334;SDS011;9293;49.524;10.964;2022-09-20T18:11:52;7.97;;;3.78;;
18334;SDS011;9293;49.524;10.964;2022-09-20T18:14:23;7.55;;;4.25;;
18334;SDS011;9293;49.524;10.964;2022-09-20T18:16:55;8.32;;;5.35;;
18334;SDS011;9293;49.524;10.964;2022-09-20T18:19:27;4.88;;;3.83;;
18334;SDS011;9293;49.524;10.964;2022-09-20T18:21:59;7.78;;;5.10;;
18334;SDS011;9293;49.524;10.964;2022-09-20T18:24:28;12.93;;;6.97;;
18334;SDS011;9293;49.524;10.964;2022-09-20T18:26:57;11.02;;;6.70;;
18334;SDS011;9293;49.524;10.964;2022-09-20T18:29:26;11.40;;;6.70;;
18334;SDS011;9293;49.524;10.964;2022-09-20T18:31:55;9.27;;;5.97;;
18334;SDS011;9293;49.524;10.964;2022-09-20T18:34:24;9.48;;;5.93;;
18334;SDS011;9293;49.524;10.964;2022-09-20T18:36:58;8.02;;;5.35;;
18334;SDS011;9293;49.524;10.964;2022-09-20T18:39:30;9.25;;;4.90;;
18334;SDS011;9293;49.524;10.964;2022-09-20T18:42:04;4.30;;;3.30;;
18334;SDS011;9293;49.524;10.964;2022-09-20T18:44:35;9.45;;;4.00;;
18334;SDS011;9293;49.524;10.964;2022-09-20T18:47:03;7.18;;;4.40;;
18334;SDS011;9293;49.524;10.964;2022-09-20T18:49:32;8.68;;;4.88;;
18334;SDS011;9293;49.524;10.964;2022-09-20T18:52:00;6.45;;;3.70;;
18334;SDS011;9293;49.524;10.964;2022-09-20T18:54:29;6.20;;;3.40;;
18334;SDS011;9293;49.524;10.964;2022-09-20T18:56:58;12.60;;;5.88;;
18334;SDS011;9293;49.524;10.964;2022-09-20T18:59:27;9.38;;;4.45;;
18334;SDS011;9293;49.524;10.964;2022-09-20T19:01:59;6.65;;;3.53;;
18334;SDS011;9293;49.524;10.964;2022-09-20T19:10:53;5.65;;;1.77;;
18334;SDS011;9293;49.524;10.964;2022-09-20T19:16:16;5.63;;;1.30;;
18334;SDS011;9293;49.524;10.964;2022-09-20T19:19:05;3.33;;;1.33;;
18334;SDS011;9293;49.524;10.964;2022-09-20T19:21:47;3.50;;;1.42;;
18334;SDS011;9293;49.524;10.964;2022-09-20T19:27:09;4.05;;;2.05;;
18334;SDS011;9293;49.524;10.964;2022-09-20T19:29:38;6.80;;;5.13;;
18334;SDS011;9293;49.524;10.964;2022-09-20T19:32:17;10.55;;;6.20;;
18334;SDS011;9293;49.524;10.964;2022-09-20T19:34:49;6.85;;;4.97;;
18334;SDS011;9293;49.524;10.964;2022-09-20T19:45:46;8.38;;;4.68;;
18334;SDS011;9293;49.524;10.964;2022-09-20T19:49:06;5.90;;;4.15;;
18334;SDS011;9293;49.524;10.964;2022-09-20T19:51:41;6.20;;;4.32;;
18334;SDS011;9293;49.524;10.964;2022-09-20T19:54:14;6.13;;;4.22;;
18334;SDS011;9293;49.524;10.964;2022-09-20T19:56:53;6.22;;;4.15;;
18334;SDS011;9293;49.524;10.964;2022-09-20T19:59:22;9.23;;;5.45;;
18334;SDS011;9293;49.524;10.964;2022-09-20T20:01:52;6.50;;;5.38;;
18334;SDS011;9293;49.524;10.964;2022-09-20T20:04:21;7.78;;;5.40;;
18334;SDS011;9293;49.524;10.964;2022-09-20T20:07:00;8.52;;;5.35;;
18334;SDS011;9293;49.524;10.964;2022-09-20T20:13:05;7.22;;;4.25;;
18334;SDS011;9293;49.524;10.964;2022-09-20T20:16:03;9.68;;;6.40;;
18334;SDS011;9293;49.524;10.964;2022-09-20T20:18:39;8.90;;;7.30;;
18334;SDS011;9293;49.524;10.964;2022-09-20T20:21:27;8.35;;;6.35;;
18334;SDS011;9293;49.524;10.964;2022-09-20T20:24:14;9.75;;;6.20;;